Time;durP1;ratioP1;P1;durP2;ratioP2;P2;SDS_P1;SDS_P2;PMS_P1;PMS_P2;Temp;Humidity;BMP_temperature;BMP_pressure;BME280_temperature;BME280_humidity;BME280_pressure;Samples;Min_cycle;Max_cycle;Signal;HPM_P1;HPM_P2
2022/04/21 00:01:37;;;;;;;6.13;3.78;;;12.00;73.80;;;;;;5089701;28;20261;-41
2022/04/21 00:04:02;;;;;;;4.20;3.75;;;11.90;73.90;;;;;;5096281;28;20134;-41
2022/04/21 00:06:28;;;;;;;4.82;3.55;;;11.90;74.10;;;;;;5093153;28;20047;-39
2022/04/21 00:08:54;;;;;;;4.03;3.22;;;11.90;74.20;;;;;;5091516;28;20031;-41
2022/04/21 00:11:20;;;;;;;3.63;3.33;;;11.80;74.20;;;;;;5095732;28;20097;-40
2022/04/21 00:13:45;;;;;;;6.32;3.53;;;11.80;74.30;;;;;;5090235;28;20103;-41
2022/04/21 00:16:11;;;;;;;4.43;3.45;;;11.80;74.60;;;;;;5097633;28;20118;-42
2022/04/21 00:18:37;;;;;;;3.88;3.47;;;11.80;74.80;;;;;;5088857;28;20065;-41
2022/04/21 00:21:02;;;;;;;4.18;3.38;;;11.70;74.80;;;;;;5104916;28;20565;-41
2022/04/21 00:23:29;;;;;;;4.53;3.30;;;11.70;74.90;;;;;;5106210;28;20024;-39
2022/04/21 00:25:56;;;;;;;4.45;3.70;;;11.70;75.00;;;;;;5095898;28;20023;-40
2022/04/21 00:28:22;;;;;;;4.40;3.88;;;11.60;75.10;;;;;;5108185;28;20024;-40
2022/04/21 00:30:47;;;;;;;5.28;3.30;;;11.70;75.30;;;;;;5094151;28;20036;-41
2022/04/21 00:33:13;;;;;;;5.07;3.40;;;11.60;75.40;;;;;;5108150;28;20108;-40
2022/04/21 00:35:38;;;;;;;4.15;3.50;;;11.50;75.60;;;;;;5095068;28;20024;-40
2022/04/21 00:38:04;;;;;;;7.47;4.30;;;11.50;75.80;;;;;;5106881;28;20126;-38
2022/04/21 00:40:30;;;;;;;5.35;3.67;;;11.50;76.00;;;;;;5098249;28;20498;-40
2022/04/21 00:42:57;;;;;;;3.42;3.13;;;11.50;76.20;;;;;;5105144;28;20034;-41
2022/04/21 00:45:23;;;;;;;4.63;3.63;;;11.50;76.30;;;;;;5099647;28;20032;-42
2022/04/21 00:47:50;;;;;;;4.53;3.25;;;11.50;76.40;;;;;;5102514;28;20036;-40
2022/04/21 00:50:19;;;;;;;4.25;3.30;;;11.40;76.50;;;;;;5101773;28;20085;-41
2022/04/21 00:52:46;;;;;;;4.63;3.58;;;11.40;76.60;;;;;;5100208;28;20499;-40
2022/04/21 00:55:13;;;;;;;3.60;3.30;;;11.40;76.80;;;;;;5104916;28;20027;-41
2022/04/21 00:57:41;;;;;;;4.15;3.75;;;11.30;76.90;;;;;;5096758;28;20035;-42
2022/04/21 01:00:08;;;;;;;5.68;3.20;;;11.30;77.10;;;;;;5106206;28;20035;-40
2022/04/21 01:05:31;;;;;;;5.13;3.83;;;11.30;77.60;;;;;;5105751;28;20070;-40
2022/04/21 01:08:07;;;;;;;3.95;3.58;;;11.20;77.80;;;;;;5087699;28;20026;-40
2022/04/21 01:10:35;;;;;;;5.00;3.90;;;11.20;78.00;;;;;;5106405;28;20020;-41
2022/04/21 01:13:04;;;;;;;6.18;5.10;;;11.20;78.20;;;;;;5085249;28;20024;-42
2022/04/21 01:15:29;;;;;;;5.25;4.65;;;11.20;79.20;;;;;;5105436;28;20383;-40
2022/04/21 01:17:55;;;;;;;6.18;4.57;;;11.20;79.50;;;;;;5095957;28;20028;-41
2022/04/21 01:20:23;;;;;;;5.47;4.60;;;11.10;79.90;;;;;;5105705;28;20040;-41
2022/04/21 01:22:49;;;;;;;6.72;4.70;;;11.10;79.80;;;;;;5095652;28;20022;-41
2022/04/21 01:25:14;;;;;;;4.90;4.40;;;11.10;80.30;;;;;;5106793;28;20034;-42
2022/04/21 01:27:41;;;;;;;5.65;4.57;;;11.10;80.30;;;;;;5092925;28;20028;-41
2022/04/21 01:30:13;;;;;;;4.45;4.05;;;11.10;80.70;;;;;;5106988;28;20067;-40
2022/04/21 01:32:43;;;;;;;5.40;4.45;;;11.00;80.60;;;;;;5092834;28;20142;-40
2022/04/21 01:35:13;;;;;;;6.07;4.20;;;11.00;80.90;;;;;;5107077;28;20027;-40
2022/04/21 01:43:08;;;;;;;6.88;4.53;;;11.00;80.90;;;;;;5097370;28;20120;-40
2022/04/21 01:45:34;;;;;;;4.60;4.10;;;11.00;81.00;;;;;;5086549;28;20020;-39
2022/04/21 01:48:02;;;;;;;4.25;3.83;;;10.90;81.00;;;;;;5097548;28;20027;-41
2022/04/21 01:50:32;;;;;;;4.65;3.67;;;10.90;81.00;;;;;;5085623;28;20475;-40
2022/04/21 01:52:58;;;;;;;3.80;3.40;;;10.90;81.10;;;;;;5096127;28;20028;-40
2022/04/21 01:55:25;;;;;;;5.38;3.90;;;10.90;81.20;;;;;;5088218;28;20073;-40
2022/04/21 01:57:50;;;;;;;4.45;3.20;;;10.90;81.40;;;;;;5093170;28;20040;-40
2022/04/21 02:00:16;;;;;;;4.10;3.70;;;10.90;81.30;;;;;;5090639;28;20028;-41
2022/04/21 02:02:45;;;;;;;4.53;3.58;;;10.90;81.40;;;;;;5089491;28;20023;-40
2022/04/21 02:05:10;;;;;;;4.18;3.78;;;10.90;81.30;;;;;;5093442;28;20110;-43
2022/04/21 02:07:42;;;;;;;3.67;3.03;;;10.90;81.30;;;;;;5086743;28;20058;-40
2022/04/21 02:10:07;;;;;;;6.85;3.78;;;10.90;81.50;;;;;;5095230;28;20048;-40
2022/04/21 02:12:33;;;;;;;4.28;3.80;;;10.90;81.60;;;;;;5086475;28;20062;-42
2022/04/21 02:15:01;;;;;;;4.18;3.50;;;10.90;81.90;;;;;;5097204;28;20048;-41
2022/04/21 02:17:28;;;;;;;5.15;3.35;;;10.80;81.80;;;;;;5086740;28;20111;-40
2022/04/21 02:19:54;;;;;;;5.40;3.55;;;10.80;81.80;;;;;;5096741;28;20073;-41
2022/04/21 02:22:19;;;;;;;4.70;3.80;;;10.80;81.90;;;;;;5099258;28;20421;-40
2022/04/21 02:24:45;;;;;;;6.32;3.92;;;10.80;82.00;;;;;;5096997;28;20024;-40
2022/04/21 02:27:11;;;;;;;5.28;3.58;;;10.80;82.00;;;;;;5085534;28;20054;-40
2022/04/21 02:29:37;;;;;;;3.85;3.42;;;10.80;82.00;;;;;;5096820;28;20038;-41
2022/04/21 02:32:04;;;;;;;3.88;3.35;;;10.70;82.10;;;;;;5085719;28;20036;-41
2022/04/21 02:34:30;;;;;;;3.95;3.15;;;10.70;82.10;;;;;;5095794;28;20102;-42
2022/04/21 02:36:56;;;;;;;4.82;3.67;;;10.70;82.10;;;;;;5086243;28;20131;-42
2022/04/21 02:39:22;;;;;;;5.68;4.03;;;10.70;82.20;;;;;;5093262;28;20378;-41
2022/04/21 02:41:48;;;;;;;4.25;3.53;;;10.60;82.30;;;;;;5089111;28;20534;-42
2022/04/21 02:44:13;;;;;;;4.90;3.42;;;10.60;82.50;;;;;;5090377;28;20023;-41
2022/04/21 02:46:39;;;;;;;4.25;3.50;;;10.60;82.50;;;;;;5091683;28;20264;-40
2022/04/21 02:49:04;;;;;;;5.45;3.40;;;10.50;82.50;;;;;;5088498;28;20529;-41
2022/04/21 02:51:30;;;;;;;3.85;3.35;;;10.50;82.50;;;;;;5093324;28;20034;-41
2022/04/21 02:59:29;;;;;;;3.63;3.28;;;10.40;82.80;;;;;;5101320;28;20810;-40
2022/04/21 03:01:55;;;;;;;4.53;3.15;;;10.40;82.80;;;;;;5095262;28;20077;-40
2022/04/21 03:04:21;;;;;;;3.88;3.42;;;10.40;82.90;;;;;;5101632;28;20055;-40
2022/04/21 03:06:46;;;;;;;5.38;3.50;;;10.40;82.90;;;;;;5093544;28;20466;-42
2022/04/21 03:09:12;;;;;;;3.40;3.10;;;10.40;83.00;;;;;;5103715;28;20464;-40
2022/04/21 03:11:37;;;;;;;3.78;3.30;;;10.30;83.60;;;;;;5092841;28;20823;-39
2022/04/21 03:14:03;;;;;;;5.35;3.58;;;10.30;83.10;;;;;;5105109;28;20050;-41
2022/04/21 03:16:34;;;;;;;4.03;3.63;;;10.30;83.30;;;;;;5096484;28;20024;-39
2022/04/21 03:19:00;;;;;;;4.68;4.28;;;10.20;83.40;;;;;;5084662;28;20028;-41
2022/04/21 03:24:19;;;;;;;3.75;3.22;;;10.20;83.60;;;;;;5085696;28;20066;-40
2022/04/21 03:26:44;;;;;;;4.40;4.00;;;10.20;83.60;;;;;;5096162;28;20145;-41
2022/04/21 03:29:10;;;;;;;6.13;4.13;;;10.10;83.60;;;;;;5085191;28;20380;-41
2022/04/21 03:31:35;;;;;;;4.90;4.20;;;10.10;83.90;;;;;;5096168;28;20097;-41
2022/04/21 03:34:02;;;;;;;4.40;4.00;;;10.10;84.10;;;;;;5083881;28;20032;-41
2022/04/21 03:36:28;;;;;;;4.82;4.28;;;10.00;84.20;;;;;;5094026;28;20479;-41
2022/04/21 03:38:53;;;;;;;5.13;4.40;;;10.00;84.40;;;;;;5086725;28;20063;-41
2022/04/21 03:41:19;;;;;;;6.65;3.78;;;10.00;84.60;;;;;;5090863;28;20357;-39
2022/04/21 03:43:44;;;;;;;4.40;3.88;;;10.00;84.70;;;;;;5089282;28;20020;-41
2022/04/21 03:46:09;;;;;;;6.50;4.32;;;9.90;84.80;;;;;;5088171;28;20453;-40
2022/04/21 03:48:35;;;;;;;5.00;4.25;;;9.90;85.00;;;;;;5091273;28;20058;-41
2022/04/21 03:51:01;;;;;;;6.32;4.20;;;9.90;85.10;;;;;;5086397;28;20363;-39
2022/04/21 03:53:27;;;;;;;6.13;4.55;;;9.90;85.20;;;;;;5093721;28;20035;-41
2022/04/21 03:55:52;;;;;;;5.38;4.43;;;9.80;85.20;;;;;;5085623;28;20052;-41
2022/04/21 03:58:18;;;;;;;5.78;4.32;;;9.80;85.30;;;;;;5095470;28;20532;-40
2022/04/21 04:00:44;;;;;;;7.30;4.80;;;9.70;85.50;;;;;;5084123;28;20032;-41
2022/04/21 04:03:09;;;;;;;5.10;4.35;;;9.70;86.00;;;;;;5095974;28;20024;-41
2022/04/21 04:05:35;;;;;;;4.53;3.85;;;9.70;86.00;;;;;;5083652;28;20032;-41
2022/04/21 04:10:53;;;;;;;4.60;4.10;;;9.60;86.40;;;;;;5084100;28;20144;-41
2022/04/21 04:13:20;;;;;;;5.68;5.00;;;9.50;86.80;;;;;;5096457;28;20024;-41
2022/04/21 04:15:48;;;;;;;4.90;4.28;;;9.50;87.00;;;;;;5083221;28;20106;-40
2022/04/21 04:18:21;;;;;;;5.43;4.53;;;9.50;87.00;;;;;;5096692;28;20041;-41
2022/04/21 04:20:46;;;;;;;;;;;9.50;87.20;;;;;;5085988;28;20094;-41
2022/04/21 04:23:16;;;;;;;6.10;4.20;;;9.40;87.30;;;;;;5095236;28;19912;-40
2022/04/21 04:25:42;;;;;;;4.53;3.95;;;9.40;87.20;;;;;;5083875;28;20074;-42
2022/04/21 04:28:07;;;;;;;4.57;4.00;;;9.40;87.40;;;;;;5093173;28;20405;-39
2022/04/21 04:30:33;;;;;;;4.43;3.70;;;9.40;87.50;;;;;;5085644;28;20032;-41
2022/04/21 04:32:58;;;;;;;6.07;4.38;;;9.30;87.50;;;;;;5090920;28;20031;-41
2022/04/21 04:35:25;;;;;;;5.93;4.78;;;9.30;87.70;;;;;;5088579;28;20059;-40
2022/04/21 04:37:52;;;;;;;4.85;4.35;;;9.30;88.10;;;;;;5088479;28;20191;-39
2022/04/21 04:40:18;;;;;;;5.05;4.38;;;9.30;88.10;;;;;;5091360;28;20554;-41
2022/04/21 04:42:43;;;;;;;7.10;5.18;;;9.30;88.30;;;;;;5087719;28;20214;-38
2022/04/21 04:47:53;;;;;;;5.47;4.65;;;9.30;88.70;;;;;;5089905;28;20039;-40
2022/04/21 04:50:19;;;;;;;6.03;4.90;;;9.30;88.80;;;;;;5097324;28;20028;-40
2022/04/21 04:52:44;;;;;;;5.82;5.10;;;9.20;89.00;;;;;;5087345;28;20031;-40
2022/04/21 04:55:11;;;;;;;6.55;4.65;;;9.30;89.40;;;;;;5099499;28;20036;-40
2022/04/21 04:57:38;;;;;;;7.22;5.05;;;9.20;89.40;;;;;;5086297;28;20097;-41
2022/04/21 05:00:08;;;;;;;6.50;4.80;;;9.20;89.40;;;;;;5099419;28;20476;-39
2022/04/21 05:02:34;;;;;;;6.57;5.05;;;9.30;89.40;;;;;;5087017;28;20465;-40
2022/04/21 05:05:00;;;;;;;5.68;4.40;;;9.30;89.40;;;;;;5098918;28;20033;-40
2022/04/21 05:07:25;;;;;;;5.28;4.25;;;9.30;89.60;;;;;;5086497;28;20086;-42
2022/04/21 05:09:51;;;;;;;7.40;4.32;;;9.30;89.50;;;;;;5099791;28;20016;-40
2022/04/21 05:12:16;;;;;;;6.47;4.03;;;9.30;89.30;;;;;;5086354;28;20525;-41
2022/04/21 05:14:45;;;;;;;6.78;4.65;;;9.30;89.40;;;;;;5096227;28;20491;-41
2022/04/21 05:17:13;;;;;;;4.07;3.67;;;9.30;89.40;;;;;;5088790;28;20035;-41
2022/04/21 05:19:39;;;;;;;4.38;3.78;;;9.40;89.50;;;;;;5093791;28;20406;-39
2022/04/21 05:22:05;;;;;;;4.90;3.60;;;9.40;89.50;;;;;;5102081;28;20039;-41
2022/04/21 05:24:33;;;;;;;4.68;3.88;;;9.40;89.40;;;;;;5097502;28;20021;-41
2022/04/21 05:27:00;;;;;;;3.80;3.40;;;9.40;89.40;;;;;;5099008;28;20027;-41
2022/04/21 05:32:11;;;;;;;4.65;3.30;;;9.50;89.40;;;;;;5099577;28;20123;-39
2022/04/21 05:34:37;;;;;;;4.55;3.47;;;9.50;89.30;;;;;;5101603;28;20079;-41
2022/04/21 05:37:04;;;;;;;3.35;3.03;;;9.60;89.30;;;;;;5097801;28;20032;-39
2022/04/21 05:39:30;;;;;;;4.55;3.63;;;9.60;89.30;;;;;;5103561;28;20020;-41
2022/04/21 05:42:00;;;;;;;4.18;3.03;;;9.70;89.30;;;;;;5093928;28;20036;-40
2022/04/21 05:44:27;;;;;;;4.20;3.58;;;9.70;89.40;;;;;;5103789;28;20040;-41
2022/04/21 05:46:53;;;;;;;4.25;3.42;;;9.70;89.20;;;;;;5093650;28;20035;-41
2022/04/21 05:49:19;;;;;;;6.28;3.40;;;9.80;89.20;;;;;;5106508;28;20023;-41
2022/04/21 05:51:48;;;;;;;4.63;3.60;;;9.80;89.10;;;;;;5093877;28;20007;-41
2022/04/21 05:54:14;;;;;;;4.70;3.38;;;9.80;89.10;;;;;;5104262;28;20494;-43
2022/04/21 05:56:40;;;;;;;3.95;3.03;;;9.90;89.40;;;;;;5093035;28;20084;-38
2022/04/21 05:59:06;;;;;;;4.45;4.03;;;9.90;89.30;;;;;;5107804;28;20069;-35
2022/04/21 06:01:31;;;;;;;5.35;4.57;;;9.90;89.50;;;;;;5094446;28;20043;-36
2022/04/21 06:03:57;;;;;;;4.13;3.67;;;9.90;89.90;;;;;;5107084;28;20028;-40
2022/04/21 06:06:23;;;;;;;4.70;3.92;;;10.00;89.70;;;;;;5097430;28;20028;-40
2022/04/21 06:08:48;;;;;;;5.60;4.15;;;10.00;89.90;;;;;;5102218;28;20065;-41
2022/04/21 06:11:14;;;;;;;4.80;4.20;;;10.00;90.20;;;;;;5099002;28;20020;-41
2022/04/21 06:13:41;;;;;;;6.47;4.53;;;10.10;90.10;;;;;;5096198;28;20768;-42
2022/04/21 06:16:07;;;;;;;4.30;3.90;;;10.10;90.10;;;;;;5088435;28;20058;-41
2022/04/21 06:18:32;;;;;;;5.00;4.03;;;10.20;90.10;;;;;;5092975;28;20035;-42
2022/04/21 06:20:58;;;;;;;6.57;3.60;;;10.20;90.00;;;;;;5087232;28;20032;-40
2022/04/21 06:23:23;;;;;;;5.25;3.50;;;10.20;90.00;;;;;;5085666;28;20046;-42
2022/04/21 06:25:55;;;;;;;3.72;3.33;;;10.30;89.90;;;;;;5091794;28;20116;-42
2022/04/21 06:28:20;;;;;;;4.72;3.55;;;10.30;90.00;;;;;;5094012;28;20026;-41
2022/04/21 06:30:48;;;;;;;3.80;3.40;;;10.40;90.00;;;;;;5104976;28;20110;-41
2022/04/21 06:33:14;;;;;;;4.85;3.92;;;10.40;90.00;;;;;;5094058;28;20039;-40
2022/04/21 06:35:39;;;;;;;6.30;4.05;;;10.50;90.00;;;;;;5105934;28;20204;-40
2022/04/21 06:38:07;;;;;;;5.22;3.78;;;10.50;90.00;;;;;;5093388;28;20012;-42
2022/04/21 06:40:32;;;;;;;4.10;3.47;;;10.50;90.00;;;;;;5105278;28;20509;-41
2022/04/21 06:43:02;;;;;;;3.80;3.30;;;10.60;90.00;;;;;;5092661;28;20020;-42
2022/04/21 06:48:13;;;;;;;4.60;3.70;;;10.70;90.00;;;;;;5095103;28;20084;-42
2022/04/21 06:50:39;;;;;;;4.88;3.70;;;10.70;90.00;;;;;;5084383;28;20103;-42
2022/04/21 06:53:06;;;;;;;5.05;4.00;;;10.80;89.90;;;;;;5095683;28;20023;-41
2022/04/21 06:55:32;;;;;;;9.88;3.78;;;10.80;89.70;;;;;;5086528;28;20039;-41
2022/04/21 06:57:58;;;;;;;3.85;3.40;;;10.90;89.70;;;;;;5092651;28;20036;-41
2022/04/21 07:00:28;;;;;;;6.05;4.05;;;10.90;89.70;;;;;;5089100;28;20036;-42
2022/04/21 07:02:55;;;;;;;4.05;3.65;;;10.90;89.80;;;;;;5091268;28;20015;-43
2022/04/21 07:05:22;;;;;;;5.10;4.15;;;11.00;89.80;;;;;;5090733;28;20032;-40
2022/04/21 07:07:48;;;;;;;4.35;3.85;;;11.00;90.00;;;;;;5088721;28;20036;-41
2022/04/21 07:10:15;;;;;;;6.32;4.57;;;11.10;90.00;;;;;;5093380;28;20036;-41
2022/04/21 07:12:41;;;;;;;6.47;4.18;;;11.10;90.00;;;;;;5086812;28;20050;-40
2022/04/21 07:15:08;;;;;;;4.85;3.80;;;11.20;89.70;;;;;;5077876;28;20078;-42
2022/04/21 07:17:35;;;;;;;6.22;4.43;;;11.20;89.40;;;;;;5085296;28;20098;-42
2022/04/21 07:20:03;;;;;;;4.32;3.60;;;11.30;89.10;;;;;;5096614;28;20111;-43
2022/04/21 07:22:29;;;;;;;4.30;3.35;;;11.30;88.60;;;;;;5096740;28;20024;-41
2022/04/21 07:25:06;;;;;;;3.33;3.03;;;11.40;87.90;;;;;;5092541;28;20134;-42
2022/04/21 07:27:32;;;;;;;3.00;2.70;;;11.50;86.90;;;;;;5104963;28;20059;-40
2022/04/21 07:29:58;;;;;;;4.50;2.70;;;11.60;86.60;;;;;;5096859;28;20063;-39
2022/04/21 07:32:23;;;;;;;5.40;3.35;;;11.60;85.50;;;;;;5083618;28;20043;-42
2022/04/21 07:34:49;;;;;;;2.58;2.35;;;11.70;84.80;;;;;;5097723;28;20076;-41
2022/04/21 07:37:18;;;;;;;2.50;2.30;;;11.70;83.70;;;;;;5084695;28;20031;-42
2022/04/21 07:39:43;;;;;;;2.72;2.47;;;11.80;82.70;;;;;;5095940;28;20575;-41
2022/04/21 07:42:10;;;;;;;2.47;2.00;;;11.80;82.10;;;;;;5086206;28;20483;-40
2022/04/21 07:44:36;;;;;;;3.15;2.47;;;11.90;82.00;;;;;;5092429;28;20169;-42
2022/04/21 07:47:03;;;;;;;2.83;2.08;;;11.90;80.10;;;;;;5085995;28;20032;-42
2022/04/21 07:49:48;;;;;;;2.20;1.85;;;12.00;80.20;;;;;;5090226;28;20051;-42
2022/04/21 07:55:10;;;;;;;2.83;1.98;;;12.10;78.90;;;;;;5094555;28;20078;-43
2022/04/21 07:57:36;;;;;;;4.22;2.20;;;12.10;78.90;;;;;;5086049;28;20052;-41
2022/04/21 08:00:04;;;;;;;2.20;1.90;;;12.20;78.90;;;;;;5091670;28;20031;-42
2022/04/21 08:02:29;;;;;;;3.30;1.88;;;12.30;79.00;;;;;;5087950;28;20472;-42
2022/04/21 08:04:54;;;;;;;2.10;1.90;;;12.30;78.90;;;;;;5090147;28;20076;-40
2022/04/21 08:07:20;;;;;;;1.83;1.52;;;12.40;78.70;;;;;;5090621;28;20028;-40
2022/04/21 08:09:45;;;;;;;2.28;1.80;;;12.50;78.40;;;;;;5087298;28;20059;-40
2022/04/21 08:12:11;;;;;;;3.50;1.85;;;12.50;76.90;;;;;;5094621;28;20024;-42
2022/04/21 08:14:37;;;;;;;2.15;1.60;;;12.60;77.20;;;;;;5085675;28;20027;-41
2022/04/21 08:17:03;;;;;;;2.28;1.63;;;12.70;77.20;;;;;;5097972;28;20456;-40
2022/04/21 08:19:28;;;;;;;2.65;1.85;;;12.80;77.00;;;;;;5089226;28;20028;-40
2022/04/21 08:21:54;;;;;;;1.92;1.45;;;12.80;76.70;;;;;;5104364;28;20026;-41
2022/04/21 08:32:43;;;;;;;2.05;1.63;;;13.10;76.20;;;;;;5097645;28;20043;-41
2022/04/21 08:35:09;;;;;;;2.40;2.20;;;13.10;75.80;;;;;;5089183;28;20051;-44
2022/04/21 08:37:35;;;;;;;3.40;1.90;;;13.20;75.90;;;;;;5098776;28;20490;-41
2022/04/21 08:40:06;;;;;;;3.20;1.85;;;13.20;74.80;;;;;;5088316;28;20032;-39
2022/04/21 08:42:37;;;;;;;2.53;1.80;;;13.20;74.30;;;;;;5098972;28;20384;-41
2022/04/21 08:45:03;;;;;;;3.40;2.05;;;13.30;73.80;;;;;;5088106;28;20026;-42
2022/04/21 08:47:32;;;;;;;2.65;1.80;;;13.30;73.30;;;;;;5099911;28;20047;-42
2022/04/21 08:50:13;;;;;;;3.92;2.03;;;13.30;72.80;;;;;;5087317;28;20148;-42
2022/04/21 08:52:42;;;;;;;2.13;1.70;;;13.30;71.70;;;;;;5100057;28;20546;-42
2022/04/21 08:55:10;;;;;;;2.13;1.50;;;13.40;72.20;;;;;;5088500;28;20089;-40
2022/04/21 08:57:36;;;;;;;1.75;1.50;;;13.40;71.40;;;;;;5098462;28;20051;-42
2022/04/21 09:00:07;;;;;;;1.88;1.58;;;13.40;71.80;;;;;;5088579;28;20035;-41
2022/04/21 09:02:41;;;;;;;2.72;2.28;;;13.50;71.60;;;;;;5098037;28;20647;-41
2022/04/21 09:05:08;;;;;;;3.10;1.85;;;13.60;71.30;;;;;;5067448;28;20054;-41
2022/04/21 09:07:50;;;;;;;2.00;1.80;;;13.70;71.10;;;;;;5091752;28;20042;-40
2022/04/21 09:10:17;;;;;;;3.00;2.00;;;13.80;72.00;;;;;;5105806;28;20056;-41
2022/04/21 09:12:48;;;;;;;3.50;2.13;;;13.90;72.00;;;;;;5096733;28;20548;-42
2022/04/21 09:15:15;;;;;;;3.42;2.30;;;13.90;72.10;;;;;;5106018;28;20111;-39
2022/04/21 09:17:44;;;;;;;4.60;2.42;;;14.00;72.20;;;;;;5097868;28;20450;-38
2022/04/21 09:20:10;;;;;;;2.97;2.40;;;14.00;71.90;;;;;;5103925;28;20062;-43
2022/04/21 09:22:41;;;;;;;2.60;2.30;;;14.00;72.10;;;;;;5099118;28;20038;-40
2022/04/21 09:25:07;;;;;;;3.50;2.03;;;14.10;72.20;;;;;;5102107;28;20030;-44
2022/04/21 09:27:43;;;;;;;3.13;2.33;;;14.10;72.40;;;;;;5102142;28;20028;-41
2022/04/21 09:30:12;;;;;;;3.45;2.20;;;14.10;71.80;;;;;;5101261;28;20082;-39
2022/04/21 09:32:49;;;;;;;2.30;2.00;;;14.10;72.10;;;;;;5102197;28;20111;-37
2022/04/21 09:35:14;;;;;;;2.95;2.00;;;14.10;71.90;;;;;;5100127;28;20032;-41
2022/04/21 09:37:54;;;;;;;2.03;1.85;;;14.20;71.80;;;;;;5103400;28;20015;-39
2022/04/21 09:40:22;;;;;;;2.53;1.80;;;14.30;71.80;;;;;;5098974;28;20425;-41
2022/04/21 09:43:07;;;;;;;2.40;1.80;;;14.30;71.00;;;;;;5104302;28;20031;-42
2022/04/21 09:48:24;;;;;;;1.90;1.65;;;14.40;71.10;;;;;;5101627;28;20038;-43
2022/04/21 09:50:53;;;;;;;2.30;2.00;;;14.40;71.40;;;;;;5100633;28;20100;-40
2022/04/21 09:53:20;;;;;;;3.03;2.03;;;14.40;71.90;;;;;;5101866;28;20023;-39
2022/04/21 09:55:47;;;;;;;4.85;1.88;;;14.50;71.60;;;;;;5097955;28;20058;-42
2022/04/21 09:58:14;;;;;;;2.67;1.40;;;14.50;70.90;;;;;;5104919;28;20061;-42
2022/04/21 10:00:41;;;;;;;2.13;1.73;;;14.60;70.70;;;;;;5095209;28;20036;-41
2022/04/21 10:03:06;;;;;;;5.32;1.98;;;14.70;71.00;;;;;;5105152;28;20038;-41
2022/04/21 10:05:34;;;;;;;3.25;1.80;;;14.70;71.00;;;;;;5094759;28;20550;-40
2022/04/21 10:08:04;;;;;;;1.92;1.70;;;14.80;70.30;;;;;;5105148;28;20023;-42
2022/04/21 10:10:31;;;;;;;1.80;1.55;;;14.80;69.90;;;;;;5093304;28;20028;-41
2022/04/21 10:13:02;;;;;;;6.60;2.25;;;14.90;69.90;;;;;;5085361;28;20157;-39
2022/04/21 10:15:29;;;;;;;3.80;1.90;;;14.90;69.60;;;;;;5093055;28;20034;-42
2022/04/21 10:17:55;;;;;;;2.50;1.90;;;14.90;69.60;;;;;;5106837;28;20031;-39
2022/04/21 10:20:23;;;;;;;2.45;2.13;;;15.00;69.30;;;;;;5092165;28;20117;-38
2022/04/21 10:22:53;;;;;;;2.63;2.10;;;15.10;69.40;;;;;;5092612;28;20036;-40
2022/04/21 10:25:19;;;;;;;2.15;1.83;;;15.10;68.80;;;;;;5098074;28;20024;-41
2022/04/21 10:27:47;;;;;;;2.92;2.20;;;15.10;68.40;;;;;;5085577;28;20020;-42
2022/04/21 10:30:20;;;;;;;3.17;1.65;;;15.10;67.80;;;;;;5095551;28;20557;-40
2022/04/21 10:32:53;;;;;;;4.80;1.65;;;15.10;67.90;;;;;;5087912;28;20112;-41
2022/04/21 10:35:23;;;;;;;2.63;1.95;;;15.10;68.00;;;;;;5094342;28;20067;-41
2022/04/21 10:38:14;;;;;;;2.13;1.70;;;15.10;68.20;;;;;;5088371;28;20024;-41
2022/04/21 10:41:03;;;;;;;1.80;1.70;;;15.20;67.80;;;;;;5095034;28;20035;-42
2022/04/21 10:43:47;;;;;;;2.15;1.58;;;15.30;67.10;;;;;;5064920;28;20025;-42
2022/04/21 10:46:29;;;;;;;1.60;1.50;;;15.40;66.90;;;;;;5095736;28;20032;-41
2022/04/21 10:48:55;;;;;;;2.42;1.40;;;15.40;67.00;;;;;;5084891;28;20692;-41
2022/04/21 10:57:12;;;;;;;2.15;1.95;;;15.50;66.90;;;;;;5097914;28;20072;-41
2022/04/21 10:57:17;;;;;;;2.45;1.90;;;15.70;67.00;;;;;;5093704;28;20055;-42
2022/04/21 11:00:01;;;;;;;1.83;1.73;;;15.70;66.90;;;;;;5085765;28;20017;-41
2022/04/21 11:02:43;;;;;;;2.35;2.08;;;15.70;66.10;;;;;;5093491;28;20035;-42
2022/04/21 11:05:21;;;;;;;;;;;15.70;65.10;;;;;;5086755;28;20020;-40
2022/04/21 11:07:54;;;;;;;1.40;1.30;;;15.70;65.20;;;;;;5096595;28;20006;-42
2022/04/21 11:10:38;;;;;;;2.22;1.65;;;15.70;65.10;;;;;;5084943;28;20387;-40
2022/04/21 11:13:05;;;;;;;1.90;1.48;;;15.70;65.60;;;;;;5083748;28;20660;-41
2022/04/21 11:15:31;;;;;;;2.22;2.03;;;15.80;65.60;;;;;;5103375;28;20028;-40
2022/04/21 11:18:17;;;;;;;2.88;2.30;;;15.90;64.50;;;;;;5093732;28;20053;-40
2022/04/21 11:20:46;;;;;;;1.88;1.73;;;16.00;64.20;;;;;;5103204;28;20119;-42
2022/04/21 11:23:44;;;;;;;2.63;1.45;;;16.00;64.20;;;;;;5101642;28;20040;-41
2022/04/21 11:26:11;;;;;;;3.13;1.73;;;16.00;64.00;;;;;;5099617;28;20106;-37
2022/04/21 11:28:42;;;;;;;5.10;2.10;;;16.00;63.40;;;;;;5095362;28;20043;-42
2022/04/21 11:31:08;;;;;;;2.13;1.50;;;16.00;63.30;;;;;;5086147;28;20024;-42
2022/04/21 11:33:35;;;;;;;1.98;1.80;;;16.00;62.80;;;;;;5096026;28;20069;-40
2022/04/21 11:36:09;;;;;;;2.85;2.00;;;16.10;63.30;;;;;;5086574;28;20434;-39
2022/04/21 11:38:36;;;;;;;2.83;1.73;;;16.10;63.30;;;;;;5092482;28;20035;-40
2022/04/21 11:41:03;;;;;;;3.22;1.85;;;16.10;64.00;;;;;;5084523;28;20422;-43
2022/04/21 11:43:29;;;;;;;2.00;1.80;;;16.20;64.00;;;;;;5091120;28;20020;-42
2022/04/21 11:45:56;;;;;;;1.80;1.70;;;16.30;63.60;;;;;;5104435;28;20027;-42
2022/04/21 11:48:34;;;;;;;2.13;1.90;;;16.40;63.70;;;;;;5091583;28;20035;-42
2022/04/21 11:51:00;;;;;;;2.38;1.60;;;16.50;63.70;;;;;;5105373;28;20027;-42
2022/04/21 11:53:33;;;;;;;3.13;2.00;;;16.50;63.90;;;;;;5094751;28;20027;-41
2022/04/21 11:55:59;;;;;;;2.33;1.90;;;16.60;64.30;;;;;;5108787;28;20059;-40
2022/04/21 11:58:31;;;;;;;2.35;2.10;;;16.70;64.10;;;;;;5096180;28;20032;-43
2022/04/21 12:06:39;;;;;;;2.22;1.70;;;17.00;64.80;;;;;;5087356;28;20047;-42
2022/04/21 12:09:13;;;;;;;3.08;2.00;;;17.20;64.40;;;;;;5101194;28;20081;-42
2022/04/21 12:11:40;;;;;;;3.47;1.67;;;17.30;64.10;;;;;;5087714;28;20128;-39
2022/04/21 12:14:06;;;;;;;3.03;1.73;;;17.50;63.60;;;;;;5100081;28;20455;-41
2022/04/21 12:16:36;;;;;;;2.53;1.90;;;17.60;63.70;;;;;;5088182;28;20050;-41
2022/04/21 12:19:35;;;;;;;3.75;1.80;;;17.80;64.00;;;;;;5099225;28;20054;-40
2022/04/21 12:22:09;;;;;;;2.17;1.90;;;17.90;64.80;;;;;;5074451;28;20659;-42
2022/04/21 12:24:38;;;;;;;2.72;1.98;;;18.00;63.70;;;;;;5100787;28;20035;-40
2022/04/21 12:27:11;;;;;;;2.05;1.77;;;18.10;63.70;;;;;;5087535;28;20024;-42
2022/04/21 12:29:48;;;;;;;3.25;2.13;;;18.20;64.00;;;;;;5100344;28;20030;-42
2022/04/21 12:32:17;;;;;;;3.22;2.53;;;18.20;64.10;;;;;;5087936;28;20016;-40
2022/04/21 12:34:43;;;;;;;3.95;2.10;;;18.10;63.00;;;;;;5099999;28;20095;-42
2022/04/21 12:37:09;;;;;;;4.43;2.83;;;18.00;62.90;;;;;;5087651;28;20024;-43
2022/04/21 12:39:35;;;;;;;5.60;2.95;;;17.90;62.70;;;;;;5097132;28;20072;-42
2022/04/21 12:42:03;;;;;;;3.67;2.03;;;17.80;63.20;;;;;;5089858;28;20043;-42
2022/04/21 12:44:29;;;;;;;4.78;2.45;;;17.80;63.70;;;;;;5094660;28;20043;-43
2022/04/21 12:47:12;;;;;;;1.77;1.67;;;17.80;63.90;;;;;;5092685;28;20036;-40
2022/04/21 12:49:52;;;;;;;3.50;1.90;;;17.80;64.40;;;;;;5093946;28;20363;-43
2022/04/21 12:52:30;;;;;;;1.77;1.67;;;17.80;65.10;;;;;;5091180;28;20028;-41
2022/04/21 12:54:56;;;;;;;2.80;1.85;;;17.90;65.00;;;;;;5095633;28;20081;-41
2022/04/21 12:57:21;;;;;;;3.15;2.63;;;17.90;65.10;;;;;;5091190;28;20048;-42
2022/04/21 12:59:47;;;;;;;3.83;2.55;;;17.90;64.60;;;;;;5093564;28;20440;-42
2022/04/21 13:02:13;;;;;;;2.92;2.55;;;17.80;64.50;;;;;;5092452;28;20450;-42
2022/04/21 13:04:39;;;;;;;4.80;2.95;;;17.80;65.10;;;;;;5090213;28;20024;-40
2022/04/21 13:07:07;;;;;;;3.35;2.60;;;17.70;65.70;;;;;;5097130;28;20125;-41
2022/04/21 13:09:33;;;;;;;3.90;2.28;;;17.80;66.20;;;;;;5087450;28;20043;-43
2022/04/21 13:11:58;;;;;;;2.67;2.45;;;17.80;66.50;;;;;;5099043;28;20020;-42
2022/04/21 13:14:24;;;;;;;3.65;2.75;;;17.90;66.30;;;;;;5087940;28;20032;-43
2022/04/21 13:16:49;;;;;;;3.08;2.28;;;18.00;66.20;;;;;;5098211;28;20059;-42
2022/04/21 13:19:15;;;;;;;4.72;2.80;;;18.00;66.20;;;;;;5087935;28;20107;-41
2022/04/21 13:21:52;;;;;;;3.03;2.60;;;18.10;66.10;;;;;;5101571;28;20700;-41
2022/04/21 13:24:22;;;;;;;3.40;2.72;;;18.10;65.80;;;;;;5108010;28;20039;-40
2022/04/21 13:26:48;;;;;;;3.95;2.67;;;18.00;65.50;;;;;;5095293;28;20028;-40
2022/04/21 13:29:13;;;;;;;3.10;2.40;;;18.00;65.30;;;;;;5109069;28;20387;-41
2022/04/21 13:34:23;;;;;;;2.95;2.30;;;18.00;65.30;;;;;;5108292;28;20084;-42
2022/04/21 13:36:48;;;;;;;4.25;2.10;;;18.10;65.30;;;;;;5093304;28;20028;-41
2022/04/21 13:39:15;;;;;;;3.92;2.28;;;18.10;65.00;;;;;;5066165;28;20074;-40
2022/04/21 13:41:41;;;;;;;4.97;2.20;;;18.10;64.80;;;;;;5085325;28;20692;-39
2022/04/21 13:44:07;;;;;;;2.58;2.17;;;18.10;65.30;;;;;;5104272;28;20030;-42
2022/04/21 13:46:35;;;;;;;4.13;2.45;;;18.20;64.80;;;;;;5098858;28;20024;-40